Time;durP1;ratioP1;P1;durP2;ratioP2;P2;SDS_P1;SDS_P2;PMS_P1;PMS_P2;Temp;Humidity;BMP_temperature;BMP_pressure;BME280_temperature;BME280_humidity;BME280_pressure;Samples;Min_cycle;Max_cycle;Signal;HPM_P1;HPM_P2
2021/12/02 00:00:26;;;;;;;2.53;1.30;;;;;;;2.55;87.95;93891.84;4985980;28;20191;-79
2021/12/02 00:02:51;;;;;;;2.47;1.43;;;;;;;2.60;87.80;93906.00;4986204;28;20730;-79
2021/12/02 00:05:16;;;;;;;3.80;1.50;;;;;;;2.58;87.84;93901.03;4984620;28;20574;-80
2021/12/02 00:07:42;;;;;;;2.47;1.50;;;;;;;2.57;88.03;93911.44;4986247;28;20189;-78
2021/12/02 00:10:07;;;;;;;2.97;1.67;;;;;;;2.66;87.95;93911.41;4985456;28;20188;-79
2021/12/02 00:12:33;;;;;;;6.67;2.37;;;;;;;2.65;88.72;93906.38;5000873;28;20195;-79
2021/12/02 00:15:05;;;;;;;8.67;3.23;;;;;;;2.68;88.80;93912.06;4985805;28;20219;-78
2021/12/02 00:17:35;;;;;;;9.50;3.43;;;;;;;2.75;88.75;93907.19;4985506;28;20239;-79
2021/12/02 00:23:23;;;;;;;12.30;3.30;;;;;;;2.83;89.07;93918.34;4985424;28;20208;-79
2021/12/02 00:25:49;;;;;;;4.67;1.80;;;;;;;2.81;89.27;93916.88;4986684;28;20181;-80
2021/12/02 00:28:14;;;;;;;7.47;2.90;;;;;;;2.83;89.54;93915.00;4987009;28;20283;-79
2021/12/02 00:30:40;;;;;;;4.80;2.20;;;;;;;2.86;89.22;93916.47;4985257;28;20216;-79
2021/12/02 00:33:05;;;;;;;3.53;2.33;;;;;;;2.90;89.23;93907.53;4984221;28;20203;-79
2021/12/02 00:35:31;;;;;;;3.43;1.50;;;;;;;2.88;89.52;93912.78;4985156;28;20216;-79
2021/12/02 00:37:56;;;;;;;6.83;1.80;;;;;;;2.93;89.87;93922.63;4984997;28;20181;-80
2021/12/02 00:40:22;;;;;;;3.90;1.60;;;;;;;2.94;90.86;93916.56;4984044;28;20188;-79
2021/12/02 00:42:48;;;;;;;5.27;1.67;;;;;;;2.91;91.68;93916.81;4983948;28;20232;-79
2021/12/02 00:45:13;;;;;;;5.10;1.27;;;;;;;2.94;91.78;93916.56;4969183;28;20183;-79
2021/12/02 00:47:38;;;;;;;1.70;1.27;;;;;;;2.95;92.43;93913.03;4984892;28;20188;-80
2021/12/02 00:50:04;;;;;;;2.37;1.67;;;;;;;2.96;92.39;93920.59;4984898;28;20210;-79
2021/12/02 00:52:31;;;;;;;8.10;2.77;;;;;;;2.94;92.65;93916.56;4968015;28;20181;-79
2021/12/02 00:54:56;;;;;;;3.07;1.63;;;;;;;2.98;93.00;93917.88;4967320;28;20208;-78
2021/12/02 00:57:21;;;;;;;3.50;1.13;;;;;;;2.99;92.81;93928.00;4984527;28;20579;-78
2021/12/02 00:59:49;;;;;;;1.60;1.00;;;;;;;3.01;93.49;93922.75;4983557;28;20188;-81
2021/12/02 01:02:15;;;;;;;1.37;1.03;;;;;;;3.00;93.31;93928.78;4983455;28;20176;-78
2021/12/02 01:04:41;;;;;;;2.30;1.00;;;;;;;2.93;94.17;93920.06;4983077;28;20185;-80
2021/12/02 01:07:07;;;;;;;5.13;1.53;;;;;;;2.89;94.02;93918.72;4984557;28;20544;-81
2021/12/02 01:09:32;;;;;;;2.67;1.47;;;;;;;2.97;94.25;93921.41;4967436;28;20192;-79
2021/12/02 01:11:58;;;;;;;4.20;2.37;;;;;;;2.86;94.79;93914.69;4982948;28;20173;-80
2021/12/02 01:14:23;;;;;;;8.23;3.40;;;;;;;2.79;94.75;93918.75;4966484;28;20599;-79
2021/12/02 01:16:49;;;;;;;2.77;1.10;;;;;;;2.87;93.47;93908.63;4982630;28;20190;-78
2021/12/02 01:19:14;;;;;;;3.73;1.70;;;;;;;2.80;93.22;93917.81;4983767;28;20216;-79
2021/12/02 01:21:42;;;;;;;6.60;1.40;;;;;;;2.80;93.27;93916.06;4983477;28;20176;-78
2021/12/02 01:24:10;;;;;;;8.00;3.07;;;;;;;2.68;93.12;93922.31;4967722;28;20263;-77
2021/12/02 01:26:36;;;;;;;3.57;1.80;;;;;;;2.66;93.36;93921.66;4965903;28;20185;-80
2021/12/02 01:29:03;;;;;;;5.13;1.60;;;;;;;2.63;93.23;93909.09;4965619;28;20226;-81
2021/12/02 01:31:31;;;;;;;4.03;1.30;;;;;;;2.57;92.92;93914.00;4981306;28;20188;-80
2021/12/02 01:34:00;;;;;;;7.53;3.23;;;;;;;2.49;93.68;93920.63;4982166;28;20225;-80
2021/12/02 01:36:26;;;;;;;3.83;1.40;;;;;;;2.49;93.83;93918.06;4982736;28;20184;-80
2021/12/02 01:38:52;;;;;;;1.80;0.90;;;;;;;2.46;93.39;93913.19;4999278;28;20180;-79
2021/12/02 01:41:17;;;;;;;2.63;1.17;;;;;;;2.45;92.54;93921.00;4981746;28;20224;-80
2021/12/02 01:43:47;;;;;;;2.00;0.80;;;;;;;2.45;92.85;93924.38;4966301;28;20206;-79
2021/12/02 01:46:14;;;;;;;1.77;0.67;;;;;;;2.43;92.76;93922.91;4982265;28;20192;-80
2021/12/02 01:48:42;;;;;;;1.27;0.60;;;;;;;2.41;92.71;93930.75;4982522;28;20173;-80
2021/12/02 01:51:10;;;;;;;2.63;1.70;;;;;;;2.34;92.80;93929.66;4982009;28;20727;-79
2021/12/02 01:53:38;;;;;;;1.97;0.97;;;;;;;2.28;93.75;93931.00;4982296;28;20197;-81
2021/12/02 01:56:14;;;;;;;1.40;1.30;;;;;;;2.32;93.53;93931.56;4982700;28;20709;-80
2021/12/02 01:58:41;;;;;;;2.90;1.20;;;;;;;2.31;93.37;93926.59;4982238;28;20549;-80
2021/12/02 02:01:14;;;;;;;3.10;1.40;;;;;;;2.35;93.76;93927.91;4984199;28;20251;-80
2021/12/02 02:03:40;;;;;;;2.47;1.70;;;;;;;2.31;93.86;93935.06;4966752;28;20277;-79
2021/12/02 02:06:06;;;;;;;2.20;0.90;;;;;;;2.29;94.54;93931.81;4983153;28;20172;-80
2021/12/02 02:08:32;;;;;;;2.67;1.13;;;;;;;2.35;94.33;93921.03;4986705;28;20180;-81
2021/12/02 02:10:57;;;;;;;2.83;1.17;;;;;;;2.30;95.00;93923.22;4986721;28;20183;-80
2021/12/02 02:13:22;;;;;;;1.70;0.90;;;;;;;2.31;94.98;93918.91;4984422;28;20192;-80
2021/12/02 02:15:51;;;;;;;1.20;0.90;;;;;;;2.27;95.47;93926.03;4986540;28;20205;-80
2021/12/02 02:18:20;;;;;;;1.93;1.20;;;;;;;2.32;95.13;93926.44;4985991;28;20184;-80
2021/12/02 02:20:58;;;;;;;2.50;0.93;;;;;;;2.24;95.42;93928.88;4986297;28;20212;-80
2021/12/02 02:23:25;;;;;;;2.33;0.83;;;;;;;2.27;95.42;93920.91;4985123;28;20652;-80
2021/12/02 02:25:50;;;;;;;1.40;0.70;;;;;;;2.18;95.84;93924.28;4986407;28;20234;-80
2021/12/02 02:28:15;;;;;;;1.50;0.93;;;;;;;2.25;95.00;93940.72;4985593;28;20208;-80
2021/12/02 02:30:41;;;;;;;1.53;1.00;;;;;;;2.22;95.26;93934.13;4969506;28;20680;-81
2021/12/02 02:33:10;;;;;;;3.00;1.40;;;;;;;2.18;95.18;93932.78;4984491;28;21148;-80
2021/12/02 02:35:35;;;;;;;1.17;0.70;;;;;;;2.09;95.85;93935.34;4984879;28;20709;-80
2021/12/02 02:38:01;;;;;;;0.90;0.70;;;;;;;2.06;95.78;93920.28;4984825;28;20177;-80
2021/12/02 02:40:26;;;;;;;2.73;1.10;;;;;;;2.01;95.82;93930.91;4985454;28;20180;-80
2021/12/02 02:42:58;;;;;;;1.97;0.87;;;;;;;1.97;95.79;93938.06;4985094;28;20197;-80
2021/12/02 02:45:24;;;;;;;1.33;0.80;;;;;;;1.96;96.18;93930.50;4986616;28;20177;-80
2021/12/02 02:47:49;;;;;;;1.83;1.10;;;;;;;2.02;96.05;93931.72;4985583;28;20208;-80
2021/12/02 02:50:17;;;;;;;3.43;1.67;;;;;;;2.02;96.27;93924.03;4985172;28;20601;-81
2021/12/02 02:52:43;;;;;;;3.40;1.10;;;;;;;2.06;95.91;93925.38;4984926;28;20202;-80
2021/12/02 02:55:12;;;;;;;2.47;1.27;;;;;;;2.10;95.76;93927.53;4985449;28;20232;-80
2021/12/02 02:57:45;;;;;;;5.03;2.07;;;;;;;2.09;95.78;93930.22;4986526;28;20180;-80
2021/12/02 03:00:13;;;;;;;4.37;1.33;;;;;;;2.18;95.78;93926.84;4987237;28;20208;-80
2021/12/02 03:05:16;;;;;;;2.83;1.30;;;;;;;2.19;95.85;93920.78;4984069;28;20181;-80
2021/12/02 03:07:46;;;;;;;3.43;1.40;;;;;;;2.20;95.67;93925.75;4984634;28;20184;-81
2021/12/02 03:10:57;;;;;;;2.47;1.33;;;;;;;2.22;95.95;93923.09;4985844;28;20208;-81
2021/12/02 03:13:14;;;;;;;9.20;2.57;;;;;;;2.24;96.29;93919.44;4985255;28;20208;-80
2021/12/02 03:18:24;;;;;;;9.63;3.90;;;;;;;2.23;95.59;93930.63;4984086;28;20186;-80
2021/12/02 03:20:49;;;;;;;9.63;4.53;;;;;;;2.21;96.22;93924.84;4983666;28;20243;-79
2021/12/02 03:23:14;;;;;;;7.13;2.40;;;;;;;2.25;95.90;93925.38;4982190;28;20247;-79
2021/12/02 03:25:40;;;;;;;6.47;2.87;;;;;;;2.30;96.01;93920.66;4983013;28;20181;-80
2021/12/02 03:28:05;;;;;;;10.30;4.17;;;;;;;2.28;95.68;93915.66;4982471;28;20184;-79
2021/12/02 03:30:31;;;;;;;2.43;1.80;;;;;;;2.34;95.32;93923.75;4982489;28;20223;-80
2021/12/02 03:32:56;;;;;;;5.50;3.67;;;;;;;2.31;95.42;93916.34;4966358;28;20210;-80
2021/12/02 03:35:22;;;;;;;5.67;2.23;;;;;;;2.25;95.66;93910.81;4982243;28;20212;-80
2021/12/02 03:37:47;;;;;;;5.03;2.60;;;;;;;2.32;95.21;93918.75;4982541;28;20227;-80
2021/12/02 03:40:13;;;;;;;5.60;2.27;;;;;;;2.31;95.31;93914.59;4984807;28;20636;-79
2021/12/02 03:42:44;;;;;;;5.93;2.53;;;;;;;2.38;95.03;93918.19;4982103;28;20675;-79
2021/12/02 03:45:09;;;;;;;3.93;1.40;;;;;;;2.37;94.77;93919.13;4982891;28;20179;-80
2021/12/02 03:47:35;;;;;;;4.40;2.47;;;;;;;2.31;94.89;93913.78;4984207;28;20193;-80
2021/12/02 03:50:00;;;;;;;5.47;3.20;;;;;;;2.31;94.95;93912.03;4981273;28;20207;-80
2021/12/02 03:52:25;;;;;;;7.80;1.60;;;;;;;2.34;94.92;93904.06;4981097;28;20185;-80
2021/12/02 03:54:51;;;;;;;6.83;2.97;;;;;;;2.30;95.16;93909.56;4981341;28;20216;-80
2021/12/02 03:57:16;;;;;;;9.30;3.10;;;;;;;2.30;94.61;93900.16;4982604;28;20172;-80
2021/12/02 03:59:41;;;;;;;3.93;2.10;;;;;;;2.32;94.46;93905.94;4982339;28;20571;-80
2021/12/02 04:02:06;;;;;;;6.60;3.10;;;;;;;2.38;94.75;93905.38;4981189;28;20196;-80
2021/12/02 04:04:32;;;;;;;8.50;2.90;;;;;;;2.38;94.70;93900.25;4981974;28;20699;-80
2021/12/02 04:06:57;;;;;;;7.23;2.23;;;;;;;2.43;94.90;93900.66;4984831;28;20183;-80
2021/12/02 04:09:26;;;;;;;5.77;2.23;;;;;;;2.45;93.61;93906.44;4992781;28;20609;-80
2021/12/02 04:12:03;;;;;;;5.73;2.20;;;;;;;2.47;93.55;93903.75;4989781;28;20215;-80
2021/12/02 04:14:33;;;;;;;5.90;1.50;;;;;;;2.43;93.98;93905.78;5004396;28;20599;-78
2021/12/02 04:17:02;;;;;;;4.70;3.50;;;;;;;2.35;94.72;93903.09;4988540;28;20188;-80
2021/12/02 04:19:28;;;;;;;6.20;2.80;;;;;;;2.27;95.12;93905.53;4987690;28;20196;-80
2021/12/02 04:21:53;;;;;;;4.57;2.63;;;;;;;2.23;95.66;93904.22;4986119;28;20184;-81
2021/12/02 04:24:19;;;;;;;6.50;2.90;;;;;;;2.17;95.87;93902.19;4969652;28;20287;-80
2021/12/02 04:26:44;;;;;;;5.23;3.70;;;;;;;2.11;95.98;93903.53;4985452;28;20204;-79
2021/12/02 04:29:11;;;;;;;2.10;1.53;;;;;;;2.03;96.58;93900.03;4985254;28;20180;-79
2021/12/02 04:31:36;;;;;;;2.43;1.90;;;;;;;2.01;96.46;93887.38;4984653;28;20719;-79
2021/12/02 04:34:01;;;;;;;3.20;2.10;;;;;;;2.03;96.22;93898.28;4985215;28;20212;-79
2021/12/02 04:36:27;;;;;;;1.93;1.60;;;;;;;1.90;96.55;93906.25;4985049;28;20172;-79
2021/12/02 04:38:52;;;;;;;2.00;1.67;;;;;;;1.97;96.57;93906.53;4984042;28;20181;-80
2021/12/02 04:41:18;;;;;;;1.93;1.40;;;;;;;1.93;96.86;93902.59;4982633;28;20203;-79
2021/12/02 04:43:43;;;;;;;1.60;1.50;;;;;;;1.90;97.12;93906.25;4983645;28;20544;-79
2021/12/02 04:46:09;;;;;;;2.93;1.00;;;;;;;1.91;96.98;93904.50;4982047;28;20191;-78
2021/12/02 04:48:34;;;;;;;3.07;1.23;;;;;;;1.93;96.65;93905.16;4983005;28;20188;-80
2021/12/02 04:50:59;;;;;;;3.00;1.13;;;;;;;2.01;96.55;93901.94;4982472;28;20177;-78
2021/12/02 04:53:25;;;;;;;5.33;1.33;;;;;;;2.02;96.71;93909.47;4982122;28;20196;-79
2021/12/02 04:55:50;;;;;;;3.87;1.40;;;;;;;2.02;96.53;93904.34;4967487;28;20227;-79
2021/12/02 04:58:15;;;;;;;4.17;1.50;;;;;;;2.10;96.19;93911.34;4983285;28;20218;-79
2021/12/02 05:00:41;;;;;;;4.30;1.53;;;;;;;2.08;96.57;93897.88;4982903;28;20195;-79
2021/12/02 05:03:06;;;;;;;4.67;2.07;;;;;;;2.03;96.39;93893.16;4981975;28;20197;-79
2021/12/02 05:05:33;;;;;;;3.47;1.67;;;;;;;2.07;96.46;93889.41;4981492;28;20180;-79
2021/12/02 05:08:00;;;;;;;3.00;1.40;;;;;;;2.07;96.65;93896.28;4984015;28;20176;-80
2021/12/02 05:10:25;;;;;;;6.77;1.63;;;;;;;2.11;96.72;93900.16;4983768;28;20606;-80
2021/12/02 05:12:50;;;;;;;4.70;1.90;;;;;;;2.13;96.70;93904.22;4967442;28;20200;-79
2021/12/02 05:15:16;;;;;;;3.33;1.33;;;;;;;2.11;97.03;93907.84;4983733;28;20244;-79
2021/12/02 05:17:41;;;;;;;5.20;1.77;;;;;;;2.05;97.23;93904.09;4983224;28;20247;-79
2021/12/02 05:20:07;;;;;;;3.57;1.57;;;;;;;2.11;97.07;93907.84;4983317;28;20186;-79
2021/12/02 05:22:32;;;;;;;4.53;1.63;;;;;;;2.06;97.08;93905.72;4981588;28;20637;-78
2021/12/02 05:24:58;;;;;;;2.27;1.20;;;;;;;2.11;97.02;93903.53;4958499;28;20203;-80
2021/12/02 05:27:23;;;;;;;9.20;3.10;;;;;;;1.98;97.04;93908.16;5001413;28;20188;-79
2021/12/02 05:29:49;;;;;;;7.30;2.13;;;;;;;1.97;97.11;93909.91;4993489;28;20180;-79
2021/12/02 05:32:14;;;;;;;3.43;1.63;;;;;;;2.05;96.88;93911.78;4976065;28;20274;-79
2021/12/02 05:34:40;;;;;;;2.93;1.30;;;;;;;2.01;97.37;93907.84;4997333;28;20222;-78
2021/12/02 05:37:05;;;;;;;3.97;1.47;;;;;;;2.04;97.59;93912.72;4994168;28;20239;-78
2021/12/02 05:39:30;;;;;;;4.33;2.40;;;;;;;1.96;97.84;93904.91;4976996;28;20176;-78
2021/12/02 05:41:56;;;;;;;5.20;1.77;;;;;;;2.03;97.69;93905.16;4983874;28;20231;-79
2021/12/02 05:44:22;;;;;;;3.37;1.40;;;;;;;2.03;97.85;93900.03;4983293;28;20204;-80
2021/12/02 05:46:47;;;;;;;4.00;2.30;;;;;;;2.02;98.56;93901.00;4982062;28;20368;-79
2021/12/02 05:49:13;;;;;;;4.00;1.70;;;;;;;2.06;98.11;93900.59;4986972;28;20184;-81
2021/12/02 05:51:40;;;;;;;2.63;1.30;;;;;;;2.08;97.99;93895.34;4977801;28;20191;-79
2021/12/02 05:54:06;;;;;;;5.50;2.67;;;;;;;1.93;98.78;93885.50;4975108;28;20193;-80
2021/12/02 05:56:31;;;;;;;2.67;1.90;;;;;;;1.97;98.82;93891.97;4974821;28;20176;-80
2021/12/02 05:58:56;;;;;;;6.30;2.20;;;;;;;2.09;98.76;93890.06;4974498;28;20656;-80
2021/12/02 06:01:22;;;;;;;5.33;2.30;;;;;;;1.98;98.49;93878.22;4974389;28;20193;-79
2021/12/02 06:03:47;;;;;;;7.47;2.63;;;;;;;2.01;98.43;93874.56;4974738;28;20576;-79
2021/12/02 06:06:15;;;;;;;4.57;2.00;;;;;;;2.07;98.68;93866.34;4974862;28;20185;-78
2021/12/02 06:08:40;;;;;;;3.63;1.80;;;;;;;2.16;98.25;93869.84;4974163;28;20275;-78
2021/12/02 06:11:05;;;;;;;4.43;2.03;;;;;;;2.10;97.96;93868.63;4974694;28;20578;-79
2021/12/02 06:13:31;;;;;;;8.03;4.23;;;;;;;2.07;98.54;93870.66;4978032;28;20207;-80
2021/12/02 06:15:56;;;;;;;4.20;2.90;;;;;;;2.04;98.52;93869.19;4961686;28;20583;-80
2021/12/02 06:18:21;;;;;;;5.37;3.13;;;;;;;2.02;98.25;93875.38;4961387;28;20224;-80
2021/12/02 06:20:51;;;;;;;5.10;3.20;;;;;;;2.03;98.63;93869.31;4974819;28;20189;-79
2021/12/02 06:23:17;;;;;;;5.07;3.50;;;;;;;1.96;98.49;93877.56;4958844;28;20576;-79
2021/12/02 06:25:45;;;;;;;4.87;3.20;;;;;;;1.97;98.72;93878.38;4967069;28;20179;-79
2021/12/02 06:28:10;;;;;;;8.17;3.47;;;;;;;1.96;98.85;93885.25;4995330;28;20190;-84
2021/12/02 06:30:36;;;;;;;4.70;2.73;;;;;;;1.94;98.93;93883.75;4997652;28;20214;-81
2021/12/02 06:33:03;;;;;;;7.33;3.57;;;;;;;1.98;98.89;93885.09;4998531;28;20212;-81
2021/12/02 06:35:28;;;;;;;4.70;2.67;;;;;;;1.96;98.70;93887.00;4980523;28;20200;-80
2021/12/02 06:37:54;;;;;;;3.87;2.77;;;;;;;1.98;98.44;93880.78;4977719;28;20176;-80
2021/12/02 06:40:19;;;;;;;6.43;3.33;;;;;;;1.92;97.84;93889.00;4974324;28;20236;-79
2021/12/02 06:42:45;;;;;;;5.00;2.10;;;;;;;1.87;97.66;93887.81;4975801;28;20219;-79
2021/12/02 06:45:13;;;;;;;3.37;2.40;;;;;;;1.89;97.77;93881.59;4978690;28;20181;-79
2021/12/02 06:47:40;;;;;;;5.63;3.10;;;;;;;1.97;97.57;93881.72;4960575;28;20177;-80
2021/12/02 06:50:13;;;;;;;6.30;3.63;;;;;;;1.97;98.12;93880.94;4976010;28;20263;-78
2021/12/02 06:52:38;;;;;;;8.93;3.80;;;;;;;1.94;97.85;93874.34;4957204;28;20189;-80
2021/12/02 06:55:04;;;;;;;9.30;4.00;;;;;;;1.97;98.14;93871.50;4973673;28;20744;-80
2021/12/02 06:57:30;;;;;;;6.93;3.73;;;;;;;1.91;97.90;93874.59;4979353;28;20188;-79
2021/12/02 06:59:55;;;;;;;4.97;2.90;;;;;;;1.93;97.73;93877.81;4977650;28;20176;-80
2021/12/02 07:02:21;;;;;;;4.67;2.77;;;;;;;1.98;97.56;93873.09;4976759;28;20185;-81
2021/12/02 07:04:46;;;;;;;8.47;4.20;;;;;;;2.05;97.54;93873.38;4979282;28;20646;-81
2021/12/02 07:07:12;;;;;;;3.97;2.07;;;;;;;2.07;97.11;93876.59;4976086;28;20181;-80
2021/12/02 07:09:37;;;;;;;4.27;2.20;;;;;;;2.04;96.97;93876.88;4974795;28;20199;-82
2021/12/02 07:12:02;;;;;;;11.57;4.90;;;;;;;2.04;96.90;93886.31;4973957;28;20180;-80
2021/12/02 07:14:28;;;;;;;9.63;3.67;;;;;;;2.09;96.61;93879.81;4978290;28;20208;-81
2021/12/02 07:16:53;;;;;;;4.70;2.80;;;;;;;2.07;96.79;93876.59;4977538;28;20177;-81
2021/12/02 07:19:19;;;;;;;6.83;2.10;;;;;;;2.12;96.75;93886.41;4975332;28;20589;-80
2021/12/02 07:21:45;;;;;;;4.10;2.80;;;;;;;2.09;96.76;93884.13;4974249;28;20183;-80
2021/12/02 07:24:13;;;;;;;7.73;2.60;;;;;;;2.09;97.11;93884.94;4957682;28;20208;-81
2021/12/02 07:26:40;;;;;;;3.53;2.53;;;;;;;1.99;96.46;93889.28;4978592;28;20215;-82
2021/12/02 07:29:18;;;;;;;4.53;2.10;;;;;;;2.10;96.80;93901.13;4975968;28;20177;-80
2021/12/02 07:31:43;;;;;;;5.67;1.83;;;;;;;2.26;96.21;93903.94;4963121;28;20617;-81
2021/12/02 07:34:09;;;;;;;2.43;1.70;;;;;;;2.22;95.69;93897.47;4959306;28;20208;-81
2021/12/02 07:36:36;;;;;;;2.90;1.30;;;;;;;2.22;95.92;93890.59;4969356;28;20212;-80
2021/12/02 07:39:04;;;;;;;2.07;1.30;;;;;;;2.18;95.63;93898.69;4961534;28;20185;-80
2021/12/02 07:41:29;;;;;;;1.50;1.40;;;;;;;2.23;95.14;93891.41;4938365;29;20213;-80
2021/12/02 07:43:55;;;;;;;1.60;1.20;;;;;;;2.26;94.86;93889.38;4968710;28;20557;-80
2021/12/02 07:46:20;;;;;;;1.97;1.03;;;;;;;2.25;94.74;93890.31;4977940;28;20188;-78
2021/12/02 07:48:45;;;;;;;1.40;1.30;;;;;;;2.31;95.04;93893.28;4978223;28;20217;-80
2021/12/02 07:51:16;;;;;;;1.83;1.53;;;;;;;2.38;94.61;93895.13;4961683;28;20176;-80
2021/12/02 07:57:03;;;;;;;1.50;1.20;;;;;;;2.48;94.51;93903.63;4975462;28;20679;-81
2021/12/02 07:59:29;;;;;;;3.50;1.80;;;;;;;2.54;93.36;93902.25;4973034;28;20263;-81
2021/12/02 08:02:00;;;;;;;4.20;1.70;;;;;;;2.60;92.70;93909.38;4973011;28;20267;-82
2021/12/02 08:04:25;;;;;;;2.40;1.73;;;;;;;2.75;92.58;93910.56;4967658;28;20244;-82
2021/12/02 08:06:51;;;;;;;2.23;1.50;;;;;;;2.76;92.57;93908.81;4954844;29;20174;-81
2021/12/02 08:09:16;;;;;;;5.20;2.10;;;;;;;2.85;92.05;93907.97;4976702;28;20208;-80
2021/12/02 08:11:41;;;;;;;3.50;2.10;;;;;;;2.94;91.72;93914.00;4986623;28;20266;-81
2021/12/02 08:14:14;;;;;;;2.60;1.83;;;;;;;2.87;91.22;93911.19;4980951;28;20231;-81
2021/12/02 08:16:39;;;;;;;6.93;3.00;;;;;;;2.82;90.81;93913.34;4955058;28;20178;-83
2021/12/02 08:19:04;;;;;;;4.37;2.20;;;;;;;2.94;90.31;93914.81;4971778;28;20519;-83
2021/12/02 08:21:36;;;;;;;4.03;2.30;;;;;;;2.94;90.19;93906.31;4957211;29;20182;-82
2021/12/02 08:24:01;;;;;;;2.60;2.03;;;;;;;2.87;90.94;93918.88;4970065;28;20658;-82
2021/12/02 08:26:27;;;;;;;3.33;2.87;;;;;;;2.75;90.47;93920.00;4957292;28;20214;-83
2021/12/02 08:28:52;;;;;;;5.20;2.97;;;;;;;2.73;91.37;93921.88;4971711;28;20217;-83
2021/12/02 08:31:17;;;;;;;18.70;9.47;;;;;;;2.63;91.38;93923.66;4970449;28;20241;-82
2021/12/02 08:33:43;;;;;;;8.90;4.97;;;;;;;2.61;91.32;93915.31;4985635;28;20688;-83
2021/12/02 08:36:08;;;;;;;15.23;7.43;;;;;;;2.59;91.82;93917.22;4974315;28;20211;-82
2021/12/02 08:38:35;;;;;;;17.93;8.13;;;;;;;2.57;91.94;93926.81;4975186;28;20329;-83
2021/12/02 08:41:02;;;;;;;50.47;21.80;;;;;;;2.39;91.98;93919.03;4974675;28;20231;-82
2021/12/02 08:43:29;;;;;;;7.70;4.13;;;;;;;2.39;91.87;93924.94;4973344;28;20561;-82
2021/12/02 08:45:54;;;;;;;22.30;11.27;;;;;;;2.40;91.77;93913.75;4973980;28;20184;-82
2021/12/02 08:48:20;;;;;;;10.40;6.07;;;;;;;2.50;91.61;93909.41;4973520;28;20189;-82
2021/12/02 08:50:47;;;;;;;8.90;3.80;;;;;;;2.69;91.07;93918.81;4973475;28;20180;-82
2021/12/02 08:53:13;;;;;;;16.57;11.50;;;;;;;2.97;90.93;93914.50;4957112;28;20208;-82
2021/12/02 08:55:39;;;;;;;4.53;3.30;;;;;;;3.06;90.76;93918.78;4954740;28;20204;-82
2021/12/02 08:58:06;;;;;;;5.67;3.87;;;;;;;3.17;89.63;93922.91;4954308;29;20231;-82
2021/12/02 09:00:34;;;;;;;4.40;3.70;;;;;;;3.01;90.35;93925.31;4965750;28;20185;-82
2021/12/02 09:03:00;;;;;;;4.63;3.00;;;;;;;2.89;91.09;93928.97;4985440;28;20203;-83
2021/12/02 09:05:25;;;;;;;5.07;2.43;;;;;;;2.83;91.53;93930.38;4989419;28;20324;-83
2021/12/02 09:07:51;;;;;;;3.47;2.03;;;;;;;2.79;91.57;93924.69;4972878;28;20652;-82
2021/12/02 09:10:21;;;;;;;4.67;3.87;;;;;;;2.89;91.59;93927.22;4974351;28;20267;-82
2021/12/02 09:12:46;;;;;;;8.33;5.97;;;;;;;2.84;91.91;93932.78;4972943;28;20197;-82
2021/12/02 09:15:11;;;;;;;4.67;3.40;;;;;;;2.76;91.97;93944.69;4970493;28;20213;-83
2021/12/02 09:17:37;;;;;;;3.47;2.90;;;;;;;2.64;91.34;93950.91;4941346;29;20183;-82
2021/12/02 09:20:04;;;;;;;2.63;1.90;;;;;;;2.47;92.24;93960.94;4970366;28;20205;-82
2021/12/02 09:22:30;;;;;;;2.17;1.80;;;;;;;2.51;92.57;93972.53;4982072;28;20235;-82
2021/12/02 09:24:55;;;;;;;2.13;1.77;;;;;;;2.21;92.69;93977.81;4976355;28;20608;-82
2021/12/02 09:27:20;;;;;;;2.13;1.27;;;;;;;1.84;92.85;93975.09;4976316;28;20200;-82
2021/12/02 09:29:46;;;;;;;1.73;1.10;;;;;;;1.64;93.17;93987.06;4973045;28;20274;-82
2021/12/02 09:32:11;;;;;;;0.80;0.80;;;;;;;1.45;93.48;93992.13;4993080;28;20422;-82
2021/12/02 09:34:37;;;;;;;1.20;1.10;;;;;;;1.26;93.97;93988.56;4996006;28;20231;-82
2021/12/02 09:37:02;;;;;;;1.77;1.40;;;;;;;1.25;93.85;93999.75;4994907;28;20184;-82
2021/12/02 09:39:32;;;;;;;1.73;1.23;;;;;;;1.16;93.96;93997.16;4975868;28;20275;-83
2021/12/02 09:41:57;;;;;;;0.90;0.90;;;;;;;1.11;94.79;94000.88;4977019;28;20678;-83
2021/12/02 09:44:23;;;;;;;0.83;0.80;;;;;;;1.17;93.76;93999.56;4973354;28;20205;-82
2021/12/02 09:46:48;;;;;;;1.17;1.07;;;;;;;1.17;93.96;93993.66;4958171;29;20188;-82
2021/12/02 09:49:16;;;;;;;1.20;1.20;;;;;;;1.11;93.69;93989.84;4969598;28;20626;-82
2021/12/02 09:54:15;;;;;;;1.50;1.40;;;;;;;1.01;93.74;93994.13;4990904;28;20212;-82
2021/12/02 09:56:43;;;;;;;1.40;1.30;;;;;;;1.10;93.37;93994.16;4976503;28;20188;-82
2021/12/02 09:59:12;;;;;;;1.67;1.57;;;;;;;1.10;93.24;93989.03;4976274;28;20185;-82
2021/12/02 10:01:51;;;;;;;1.63;1.40;;;;;;;1.13;93.57;93993.91;4976056;28;20196;-83
2021/12/02 10:04:16;;;;;;;2.80;2.60;;;;;;;1.09;93.20;93994.28;4977692;28;20204;-83
2021/12/02 10:06:42;;;;;;;0.80;0.80;;;;;;;1.00;93.17;93989.94;4976426;28;20215;-83
2021/12/02 10:09:15;;;;;;;0.93;0.90;;;;;;;1.00;93.52;93995.06;4976979;28;20195;-82
2021/12/02 10:14:34;;;;;;;1.83;1.60;;;;;;;0.99;94.32;93988.34;4976230;28;20208;-82
2021/12/02 10:17:14;;;;;;;1.23;1.20;;;;;;;0.88;94.60;93999.44;4974286;28;20596;-83
2021/12/02 10:20:16;;;;;;;0.60;0.60;;;;;;;0.82;94.81;93995.66;4975387;28;20219;-83
2021/12/02 10:22:46;;;;;;;1.07;0.97;;;;;;;0.77;94.79;93997.75;4921544;29;20229;-80
2021/12/02 10:25:28;;;;;;;0.57;0.57;;;;;;;0.91;94.87;93993.28;4936028;29;20572;-82
2021/12/02 10:28:02;;;;;;;0.60;0.60;;;;;;;0.71;95.19;93993.19;4920584;29;20288;-81
2021/12/02 10:30:27;;;;;;;0.50;0.50;;;;;;;0.79;95.16;93985.66;4955308;29;20193;-83
2021/12/02 10:32:53;;;;;;;0.97;0.60;;;;;;;0.72;95.16;93989.69;4937633;29;20647;-83
2021/12/02 10:35:20;;;;;;;0.70;0.70;;;;;;;0.65;95.24;93985.19;4937648;29;20217;-83
2021/12/02 10:37:46;;;;;;;0.93;0.90;;;;;;;0.66;95.47;93985.06;4908373;29;20189;-82
2021/12/02 10:40:20;;;;;;;1.93;1.80;;;;;;;0.58;95.53;93990.00;4940391;29;20201;-82
2021/12/02 10:42:45;;;;;;;2.10;2.00;;;;;;;0.66;95.54;93979.97;4922785;29;20228;-81
2021/12/02 10:45:26;;;;;;;1.90;1.80;;;;;;;0.74;95.24;93981.88;4937261;29;20217;-81
2021/12/02 10:47:54;;;;;;;3.07;2.87;;;;;;;0.70;95.35;93983.06;4913635;29;20296;-81
2021/12/02 10:50:23;;;;;;;3.43;3.13;;;;;;;0.73;95.45;93981.06;4920306;29;20196;-80
2021/12/02 10:52:49;;;;;;;2.47;2.37;;;;;;;0.91;94.54;93990.72;4938909;29;20220;-80
2021/12/02 10:55:18;;;;;;;3.07;2.77;;;;;;;0.88;94.67;93990.94;4953213;29;20220;-81
2021/12/02 10:57:50;;;;;;;2.20;2.00;;;;;;;0.82;94.80;93984.63;4950987;29;20190;-81
2021/12/02 11:00:19;;;;;;;2.50;2.40;;;;;;;0.86;95.00;93980.84;4975057;28;20275;-82
2021/12/02 11:02:50;;;;;;;3.07;2.87;;;;;;;0.91;94.67;93988.97;4957104;28;20237;-82
2021/12/02 11:05:23;;;;;;;2.23;1.57;;;;;;;0.83;94.59;93992.16;4987838;28;20183;-81
2021/12/02 11:08:08;;;;;;;1.90;1.80;;;;;;;0.68;95.17;93987.50;4974219;28;20657;-82
2021/12/02 11:10:36;;;;;;;1.53;1.43;;;;;;;0.66;95.67;93990.19;4954906;28;20192;-81
2021/12/02 11:13:01;;;;;;;15.57;13.30;;;;;;;0.68;95.30;93985.75;4976826;28;20248;-82
2021/12/02 11:15:28;;;;;;;11.63;10.43;;;;;;;0.72;95.97;93987.13;4975353;28;20220;-82
2021/12/02 11:18:02;;;;;;;17.57;16.10;;;;;;;0.78;95.09;93996.00;4974354;28;20195;-81
2021/12/02 11:20:39;;;;;;;3.67;3.37;;;;;;;0.90;94.81;93992.47;4971058;28;20177;-81
2021/12/02 11:23:14;;;;;;;2.23;2.13;;;;;;;0.97;94.23;93993.59;4954736;28;20675;-81
2021/12/02 11:25:56;;;;;;;4.70;4.30;;;;;;;0.95;94.32;93992.88;4958016;28;20667;-82
2021/12/02 11:28:23;;;;;;;2.97;2.77;;;;;;;0.98;94.32;93990.09;4974977;28;20687;-80
2021/12/02 11:30:49;;;;;;;1.60;1.40;;;;;;;1.10;94.52;93988.25;4970659;28;20260;-80
2021/12/02 11:33:18;;;;;;;1.50;1.40;;;;;;;1.09;93.51;93984.06;4948784;29;20201;-78
2021/12/02 11:35:45;;;;;;;2.07;1.87;;;;;;;1.24;93.28;93987.91;4957826;28;20205;-81
2021/12/02 11:38:21;;;;;;;1.63;1.30;;;;;;;1.38;92.66;93986.72;4957225;28;20228;-79
2021/12/02 11:40:55;;;;;;;1.40;1.30;;;;;;;1.18;92.22;93990.97;4974755;28;20207;-82
2021/12/02 11:43:30;;;;;;;1.60;1.50;;;;;;;1.24;93.10;93981.97;4974076;28;20208;-81
2021/12/02 11:45:57;;;;;;;1.60;1.50;;;;;;;1.23;92.21;93983.69;4974469;28;20198;-82
2021/12/02 11:48:25;;;;;;;2.17;1.60;;;;;;;1.35;92.68;93982.69;4974729;28;20607;-81
2021/12/02 11:50:53;;;;;;;4.50;1.70;;;;;;;1.48;91.88;93981.63;4972050;28;20252;-80
2021/12/02 11:53:22;;;;;;;2.57;1.30;;;;;;;1.64;92.05;93979.38;4969240;28;20580;-81
2021/12/02 11:55:50;;;;;;;1.83;1.50;;;;;;;1.62;92.13;93979.50;4975053;28;20232;-82
2021/12/02 11:58:15;;;;;;;3.50;1.40;;;;;;;1.60;91.21;93980.59;4976874;28;20195;-78